createdAt,value
2019-03-19T00:00:07.295Z,1022.847
2019-03-19T00:00:19.068Z,1022.9124
2019-03-19T00:00:30.834Z,1022.8764
2019-03-19T00:00:42.645Z,1022.8634
2019-03-19T00:00:54.396Z,1022.8456
2019-03-19T00:01:06.176Z,1022.8619
2019-03-19T00:01:17.944Z,1022.8865
2019-03-19T00:01:29.697Z,1022.8883
2019-03-19T00:01:41.468Z,1022.8605
2019-03-19T00:01:53.242Z,1022.8897
2019-03-19T00:02:04.992Z,1022.8833
2019-03-19T00:02:16.750Z,1022.8557
2019-03-19T00:02:28.624Z,1022.8543
2019-03-19T00:02:40.372Z,1022.8559
2019-03-19T00:02:52.118Z,1022.8837
2019-03-19T00:03:03.882Z,1022.8791
2019-03-19T00:03:15.638Z,1022.9265
2019-03-19T00:03:27.394Z,1022.9134
2019-03-19T00:03:39.179Z,1022.9282
2019-03-19T00:03:50.916Z,1022.9167
2019-03-19T00:04:02.653Z,1022.9152
2019-03-19T00:04:14.446Z,1022.9201
2019-03-19T00:04:26.214Z,1022.8989
2019-03-19T00:04:38.001Z,1022.9251
2019-03-19T00:04:49.784Z,1022.9414
2019-03-19T00:05:01.570Z,1022.9547
2019-03-19T00:05:13.356Z,1022.914
2019-03-19T00:05:25.116Z,1022.8878
2019-03-19T00:05:36.874Z,1022.9415
2019-03-19T00:05:48.623Z,1022.9268
2019-03-19T00:06:01.285Z,1022.9762
2019-03-19T00:06:13.142Z,1023.0056
2019-03-19T00:06:24.915Z,1023.0042
2019-03-19T00:06:36.689Z,1022.9614
2019-03-19T00:06:48.472Z,1023.0268
2019-03-19T00:07:00.235Z,1022.9715
2019-03-19T00:07:12.013Z,1023.0138
2019-03-19T00:07:23.748Z,1022.9829
2019-03-19T00:07:35.686Z,1023.0187
2019-03-19T00:07:47.450Z,1023.0122
2019-03-19T00:07:59.220Z,1022.9976
2019-03-19T00:08:10.978Z,1023.0219
2019-03-19T00:08:22.751Z,1022.9962
2019-03-19T00:08:34.556Z,1023.0222
2019-03-19T00:08:46.357Z,1023.0239
2019-03-19T00:08:58.102Z,1023.0057
2019-03-19T00:09:09.892Z,1023.0321
2019-03-19T00:09:21.671Z,1023.0548
2019-03-19T00:09:33.427Z,1023.001
2019-03-19T00:09:45.207Z,1023.0614
2019-03-19T00:09:56.971Z,1023.014
2019-03-19T00:10:08.735Z,1023.0401
2019-03-19T00:10:20.540Z,1023.0158
2019-03-19T00:10:32.278Z,1023.0632
2019-03-19T00:10:44.041Z,1023.0828
2019-03-19T00:10:55.837Z,1023.0421
2019-03-19T00:11:07.594Z,1023.032
2019-03-19T00:11:19.361Z,1023.0615
2019-03-19T00:11:31.103Z,1023.0289
2019-03-19T00:11:42.883Z,1023.05
2019-03-19T00:11:54.657Z,1023.0629
2019-03-19T00:12:06.401Z,1023.0482
2019-03-19T00:12:18.158Z,1023.0401
2019-03-19T00:12:29.928Z,1023.0368
2019-03-19T00:12:41.744Z,1023.0142
2019-03-19T00:12:53.521Z,1023.0449
2019-03-19T00:13:05.300Z,1023.0582
2019-03-19T00:13:17.079Z,1023.0449
2019-03-19T00:13:28.859Z,1023.0449
2019-03-19T00:13:40.611Z,1023.0451
2019-03-19T00:13:52.365Z,1023.0451
2019-03-19T00:14:04.132Z,1023.0892
2019-03-19T00:14:15.916Z,1023.0712
2019-03-19T00:14:27.698Z,1023.0744
2019-03-19T00:14:39.452Z,1023.0532
2019-03-19T00:14:51.198Z,1023.0953
2019-03-19T00:15:02.971Z,1023.0565
2019-03-19T00:15:14.717Z,1023.0579
2019-03-19T00:15:26.503Z,1023.0712
2019-03-19T00:15:38.269Z,1023.0512
2019-03-19T00:15:50.055Z,1023.0692
2019-03-19T00:16:01.824Z,1023.0302
2019-03-19T00:16:13.584Z,1023.0334
2019-03-19T00:16:25.373Z,1023.0723
2019-03-19T00:16:37.132Z,1023.069
2019-03-19T00:16:48.891Z,1023.061
2019-03-19T00:17:00.646Z,1023.0725
2019-03-19T00:17:12.406Z,1023.0709
2019-03-19T00:17:24.205Z,1023.0382
2019-03-19T00:17:36.030Z,1023.0643
2019-03-19T00:17:47.776Z,1023.0334
2019-03-19T00:17:59.535Z,1023.0678
2019-03-19T00:18:11.308Z,1023.0119
2019-03-19T00:18:23.088Z,1023.1278
2019-03-19T00:18:34.824Z,1023.0449
2019-03-19T00:18:46.598Z,1023.0465
2019-03-19T00:18:58.376Z,1023.0561
2019-03-19T00:19:10.127Z,1023.0248
2019-03-19T00:19:22.585Z,1023.0808
2019-03-19T00:19:33.666Z,1023.066
2019-03-19T00:19:45.421Z,1023.0559
2019-03-19T00:19:57.197Z,1023.0512
2019-03-19T00:20:08.979Z,1023.0546
2019-03-19T00:20:20.729Z,1022.9956
2019-03-19T00:20:32.508Z,1023.0186
2019-03-19T00:20:44.293Z,1022.9891
2019-03-19T00:20:56.049Z,1023.0463
2019-03-19T00:21:07.805Z,1023.0282
2019-03-19T00:21:19.573Z,1023.0578
2019-03-19T00:21:31.339Z,1023.0479
2019-03-19T00:21:43.126Z,1023.0381
2019-03-19T00:21:54.923Z,1023.0462
2019-03-19T00:22:06.627Z,1023.0218
2019-03-19T00:22:18.400Z,1023.0251
2019-03-19T00:22:30.200Z,1023.0152
2019-03-19T00:22:41.948Z,1023.0545
2019-03-19T00:22:53.718Z,1023.0348
2019-03-19T00:23:05.630Z,1023.0593
2019-03-19T00:23:17.377Z,1023.0413
2019-03-19T00:23:29.135Z,1023.0463
2019-03-19T00:23:40.886Z,1023.0283
2019-03-19T00:23:52.666Z,1023.0531
2019-03-19T00:24:04.440Z,1023.0348
2019-03-19T00:24:16.230Z,1023.0397
2019-03-19T00:24:28.023Z,1023.0577
2019-03-19T00:24:39.775Z,1023.087
2019-03-19T00:24:51.563Z,1023.0463
2019-03-19T00:25:03.315Z,1023.0711
2019-03-19T00:25:15.068Z,1023.0596
2019-03-19T00:25:30.172Z,1023.0399
2019-03-19T00:25:39.536Z,1023.097
2019-03-19T00:25:53.152Z,1023.068
2019-03-19T00:26:04.049Z,1023.0596
2019-03-19T00:26:15.805Z,1023.0939
2019-03-19T00:26:27.588Z,1023.089
2019-03-19T00:26:39.358Z,1023.0631
2019-03-19T00:26:51.117Z,1023.0402
2019-03-19T00:27:02.871Z,1023.1021
2019-03-19T00:27:14.645Z,1023.0661
2019-03-19T00:27:26.404Z,1023.0729
2019-03-19T00:27:38.172Z,1023.104
2019-03-19T00:27:49.955Z,1023.1253
2019-03-19T00:28:01.887Z,1023.1381
2019-03-19T00:28:14.654Z,1023.0776
2019-03-19T00:28:26.428Z,1023.1267
2019-03-19T00:28:39.118Z,1023.1007
2019-03-19T00:28:50.975Z,1023.0861
2019-03-19T00:29:02.740Z,1023.0942
2019-03-19T00:29:14.492Z,1023.1123
2019-03-19T00:29:26.277Z,1023.1204
2019-03-19T00:29:38.028Z,1023.1171
2019-03-19T00:29:49.785Z,1023.1152
2019-03-19T00:30:01.557Z,1023.1548
2019-03-19T00:30:13.322Z,1023.1253
2019-03-19T00:30:25.073Z,1023.166
2019-03-19T00:30:36.839Z,1023.1709
2019-03-19T00:30:48.614Z,1023.1269
2019-03-19T00:31:00.380Z,1023.1529
2019-03-19T00:31:12.163Z,1023.173
2019-03-19T00:31:23.925Z,1023.1695
2019-03-19T00:31:35.695Z,1023.1777
2019-03-19T00:31:47.498Z,1023.1547
2019-03-19T00:31:59.239Z,1023.1875
2019-03-19T00:32:11.023Z,1023.1662
2019-03-19T00:32:22.794Z,1023.176
2019-03-19T00:32:34.565Z,1023.2038
2019-03-19T00:32:46.336Z,1023.2153
2019-03-19T00:32:58.115Z,1023.2398
2019-03-19T00:33:09.878Z,1023.1975
2019-03-19T00:33:21.670Z,1023.2284
2019-03-19T00:33:33.447Z,1023.2169
2019-03-19T00:33:45.241Z,1023.2073
2019-03-19T00:34:06.667Z,1023.2138
2019-03-19T00:34:18.437Z,1023.2124
2019-03-19T00:34:30.198Z,1023.2173
2019-03-19T00:34:41.954Z,1023.1911
2019-03-19T00:34:53.701Z,1023.2009
2019-03-19T00:35:05.477Z,1023.1619
2019-03-19T00:35:17.219Z,1023.1928
2019-03-19T00:35:28.978Z,1023.2223
2019-03-19T00:35:40.727Z,1023.2075
2019-03-19T00:35:52.486Z,1023.2368
2019-03-19T00:36:04.235Z,1023.1896
2019-03-19T00:36:17.489Z,1023.2107
2019-03-19T00:36:28.781Z,1023.25
2019-03-19T00:36:40.561Z,1023.25
2019-03-19T00:36:52.339Z,1023.2047
2019-03-19T00:37:04.120Z,1023.2617
2019-03-19T00:37:15.876Z,1023.2175
2019-03-19T00:37:27.630Z,1023.1896
2019-03-19T00:37:39.400Z,1023.2193
2019-03-19T00:37:51.152Z,1023.1931
2019-03-19T00:38:02.930Z,1023.2438
2019-03-19T00:38:14.720Z,1023.2128
2019-03-19T00:38:26.488Z,1023.2326
2019-03-19T00:38:38.251Z,1023.2262
2019-03-19T00:38:50.020Z,1023.2293
2019-03-19T00:39:01.834Z,1023.1885
2019-03-19T00:39:13.603Z,1023.226
2019-03-19T00:39:25.394Z,1023.2246
2019-03-19T00:39:37.175Z,1023.2115
2019-03-19T00:39:48.927Z,1023.2148
2019-03-19T00:40:00.682Z,1023.1954
2019-03-19T00:40:12.444Z,1023.2332
2019-03-19T00:40:24.217Z,1023.254
2019-03-19T00:40:35.981Z,1023.2037
2019-03-19T00:40:47.735Z,1023.2005
2019-03-19T00:40:59.488Z,1023.1857
2019-03-19T00:41:11.265Z,1023.2136
2019-03-19T00:41:23.041Z,1023.2072
2019-03-19T00:41:34.789Z,1023.2089
2019-03-19T00:41:46.540Z,1023.1925
2019-03-19T00:41:58.333Z,1023.2203
2019-03-19T00:42:10.099Z,1023.1567
2019-03-19T00:42:21.848Z,1023.1926
2019-03-19T00:42:33.593Z,1023.2123
2019-03-19T00:42:45.391Z,1023.2205
2019-03-19T00:42:57.147Z,1023.2548
2019-03-19T00:43:08.930Z,1023.2402
2019-03-19T00:43:20.685Z,1023.2157
2019-03-19T00:43:32.444Z,1023.2256
2019-03-19T00:43:44.259Z,1023.2812
2019-03-19T00:43:56.002Z,1023.2175
2019-03-19T00:44:07.761Z,1023.2337
2019-03-19T00:44:19.516Z,1023.2453
2019-03-19T00:44:31.306Z,1023.2209
2019-03-19T00:44:43.092Z,1023.2241
2019-03-19T00:44:54.829Z,1023.2454
2019-03-19T00:45:06.609Z,1023.2241
2019-03-19T00:45:18.398Z,1023.2374
2019-03-19T00:45:30.150Z,1023.236
2019-03-19T00:45:41.935Z,1023.2456
2019-03-19T00:45:53.695Z,1023.2295
2019-03-19T00:46:05.452Z,1023.2686
2019-03-19T00:46:17.191Z,1023.2167
2019-03-19T00:46:28.964Z,1023.2249
2019-03-19T00:46:40.717Z,1023.2608
2019-03-19T00:46:52.484Z,1023.2365
2019-03-19T00:47:04.260Z,1023.2576
2019-03-19T00:47:16.019Z,1023.2625
2019-03-19T00:47:27.773Z,1023.2902
2019-03-19T00:47:39.528Z,1023.2575
2019-03-19T00:47:51.314Z,1023.251
2019-03-19T00:48:03.114Z,1023.2611
2019-03-19T00:48:14.865Z,1023.2545
2019-03-19T00:48:26.637Z,1023.302
2019-03-19T00:48:38.384Z,1023.2907
2019-03-19T00:48:50.150Z,1023.2675
2019-03-19T00:49:01.898Z,1023.2678
2019-03-19T00:49:13.648Z,1023.3234
2019-03-19T00:49:25.438Z,1023.32
2019-03-19T00:49:37.196Z,1023.3314
2019-03-19T00:49:49.003Z,1023.2907
2019-03-19T00:50:00.789Z,1023.3462
2019-03-19T00:50:12.538Z,1023.2971
2019-03-19T00:50:24.294Z,1023.3184
2019-03-19T00:50:36.071Z,1023.3463
2019-03-19T00:50:47.826Z,1023.3724
2019-03-19T00:50:59.604Z,1023.2874
2019-03-19T00:51:11.377Z,1023.3641
2019-03-19T00:51:23.165Z,1023.3936
2019-03-19T00:51:34.943Z,1023.3792
2019-03-19T00:51:46.731Z,1023.3333
2019-03-19T00:51:58.487Z,1023.3269
2019-03-19T00:52:10.240Z,1023.3353
2019-03-19T00:52:22.015Z,1023.3269
2019-03-19T00:52:33.791Z,1023.353
2019-03-19T00:52:45.586Z,1023.3548
2019-03-19T00:52:57.350Z,1023.371
2019-03-19T00:53:09.106Z,1023.3548
2019-03-19T00:53:20.877Z,1023.3403
2019-03-19T00:53:32.653Z,1023.3615
2019-03-19T00:53:44.408Z,1023.3334
2019-03-19T00:53:56.182Z,1023.3746
2019-03-19T00:54:07.964Z,1023.3875
2019-03-19T00:54:19.739Z,1023.4169
2019-03-19T00:54:31.525Z,1023.4071
2019-03-19T00:54:43.293Z,1023.4023
2019-03-19T00:54:55.066Z,1023.3729
2019-03-19T00:55:06.842Z,1023.4138
2019-03-19T00:55:18.588Z,1023.3912
2019-03-19T00:55:40.124Z,1023.3406
2019-03-19T00:55:43.094Z,1023.3649
2019-03-19T00:55:54.882Z,1023.3797
2019-03-19T00:56:06.636Z,1023.4173
2019-03-19T00:56:18.380Z,1023.4302
2019-03-19T00:56:30.139Z,1023.4042
2019-03-19T00:56:41.935Z,1023.4058
2019-03-19T00:56:53.695Z,1023.4306
2019-03-19T00:57:05.456Z,1023.4188
2019-03-19T00:57:17.229Z,1023.4173
2019-03-19T00:57:29.026Z,1023.445
2019-03-19T00:57:40.776Z,1023.4453
2019-03-19T00:57:52.535Z,1023.4045
2019-03-19T00:58:04.332Z,1023.4632
2019-03-19T00:58:16.047Z,1023.4207
2019-03-19T00:58:27.826Z,1023.4403
2019-03-19T00:58:39.617Z,1023.4389
2019-03-19T00:58:51.387Z,1023.4796
2019-03-19T00:59:03.153Z,1023.4339
2019-03-19T00:59:14.918Z,1023.465
2019-03-19T00:59:26.715Z,1023.4389
2019-03-19T00:59:38.492Z,1023.478
2019-03-19T00:59:50.313Z,1023.416
2019-03-19T01:00:02.085Z,1023.4537
2019-03-19T01:00:13.876Z,1023.4877
2019-03-19T01:00:25.694Z,1023.4763
2019-03-19T01:00:37.460Z,1023.4503
2019-03-19T01:00:49.230Z,1023.4438
2019-03-19T01:01:01.019Z,1023.4489
2019-03-19T01:01:12.773Z,1023.4439
2019-03-19T01:01:24.525Z,1023.4603
2019-03-19T01:01:38.582Z,1023.5026
2019-03-19T01:01:49.057Z,1023.4799
2019-03-19T01:02:00.825Z,1023.4931
2019-03-19T01:02:12.595Z,1023.4799
2019-03-19T01:02:24.354Z,1023.4589
2019-03-19T01:02:36.145Z,1023.4621
2019-03-19T01:02:47.908Z,1023.4607
2019-03-19T01:02:59.667Z,1023.4719
2019-03-19T01:03:11.420Z,1023.4752
2019-03-19T01:03:23.192Z,1023.4752
2019-03-19T01:03:34.929Z,1023.4572
2019-03-19T01:03:46.678Z,1023.503
2019-03-19T01:03:58.461Z,1023.4787
2019-03-19T01:04:10.226Z,1023.4882
2019-03-19T01:04:21.985Z,1023.4899
2019-03-19T01:04:33.752Z,1023.493
2019-03-19T01:04:45.538Z,1023.4816
2019-03-19T01:04:57.313Z,1023.4804
2019-03-19T01:05:09.090Z,1023.4915
2019-03-19T01:05:20.882Z,1023.4915
2019-03-19T01:05:32.643Z,1023.4621
2019-03-19T01:05:44.438Z,1023.4866
2019-03-19T01:05:56.213Z,1023.4882
2019-03-19T01:06:08.017Z,1023.5142
2019-03-19T01:06:19.775Z,1023.5159
2019-03-19T01:06:31.564Z,1023.4782
2019-03-19T01:06:43.323Z,1023.5092
2019-03-19T01:06:55.101Z,1023.4816
2019-03-19T01:07:06.856Z,1023.5028
2019-03-19T01:07:18.633Z,1023.5292
2019-03-19T01:07:30.396Z,1023.5306
2019-03-19T01:07:42.137Z,1023.5697
2019-03-19T01:07:53.933Z,1023.5682
2019-03-19T01:08:05.690Z,1023.5242
2019-03-19T01:08:17.457Z,1023.4882
2019-03-19T01:08:29.214Z,1023.5079
2019-03-19T01:08:41.000Z,1023.4981
2019-03-19T01:08:52.788Z,1023.5093
2019-03-19T01:09:04.532Z,1023.5193
2019-03-19T01:09:16.313Z,1023.4915
2019-03-19T01:09:28.057Z,1023.4967
2019-03-19T01:09:39.820Z,1023.4866
2019-03-19T01:09:51.609Z,1023.5064
2019-03-19T01:10:03.370Z,1023.4704
2019-03-19T01:10:17.309Z,1023.4916
2019-03-19T01:10:27.948Z,1023.4884
2019-03-19T01:10:39.768Z,1023.4821
2019-03-19T01:10:51.549Z,1023.5211
2019-03-19T01:11:03.332Z,1023.4673
2019-03-19T01:11:15.095Z,1023.4478
2019-03-19T01:11:26.839Z,1023.4738
2019-03-19T01:11:38.585Z,1023.4592
2019-03-19T01:11:50.331Z,1023.4477
2019-03-19T01:12:02.113Z,1023.4643
2019-03-19T01:12:13.862Z,1023.4495
2019-03-19T01:12:25.634Z,1023.4397
2019-03-19T01:12:37.417Z,1023.4315
2019-03-19T01:12:49.164Z,1023.4724
2019-03-19T01:13:00.949Z,1023.4171
2019-03-19T01:13:12.712Z,1023.4301
2019-03-19T01:13:24.489Z,1023.4121
2019-03-19T01:13:36.294Z,1023.4299
2019-03-19T01:13:48.067Z,1023.4773
2019-03-19T01:13:59.855Z,1023.4287
2019-03-19T01:14:11.627Z,1023.435
2019-03-19T01:14:23.385Z,1023.4609
2019-03-19T01:14:35.145Z,1023.4726
2019-03-19T01:14:46.906Z,1023.4676
2019-03-19T01:14:59.657Z,1023.5101
2019-03-19T01:15:11.454Z,1023.4548
2019-03-19T01:15:23.206Z,1023.4695
2019-03-19T01:15:35.103Z,1023.4646
2019-03-19T01:15:46.893Z,1023.4807
2019-03-19T01:15:58.636Z,1023.4335
2019-03-19T01:16:10.396Z,1023.46
2019-03-19T01:16:22.145Z,1023.4468
2019-03-19T01:16:33.929Z,1023.4582
2019-03-19T01:16:45.704Z,1023.4664
2019-03-19T01:16:57.504Z,1023.4565
2019-03-19T01:17:09.288Z,1023.4486
2019-03-19T01:17:21.062Z,1023.4777
2019-03-19T01:17:32.835Z,1023.4815
2019-03-19T01:17:44.576Z,1023.4502
2019-03-19T01:17:56.370Z,1023.452
2019-03-19T01:18:08.141Z,1023.501
2019-03-19T01:18:19.921Z,1023.488
2019-03-19T01:18:31.674Z,1023.4896
2019-03-19T01:18:43.443Z,1023.4799
2019-03-19T01:18:55.211Z,1023.5485
2019-03-19T01:19:06.960Z,1023.5042
2019-03-19T01:19:18.717Z,1023.5515
2019-03-19T01:19:30.483Z,1023.5797
2019-03-19T01:19:42.259Z,1023.524
2019-03-19T01:19:54.021Z,1023.5614
2019-03-19T01:20:05.784Z,1023.5515
2019-03-19T01:20:17.529Z,1023.5908
2019-03-19T01:20:29.313Z,1023.5698
2019-03-19T01:20:41.133Z,1023.542
2019-03-19T01:20:52.889Z,1023.6282
2019-03-19T01:21:05.666Z,1023.5842
2019-03-19T01:21:17.495Z,1023.5859
2019-03-19T01:21:29.253Z,1023.6546
2019-03-19T01:21:41.020Z,1023.6628
2019-03-19T01:21:52.778Z,1023.6251
2019-03-19T01:22:04.528Z,1023.6515
2019-03-19T01:22:16.307Z,1023.6088
2019-03-19T01:22:28.085Z,1023.5925
2019-03-19T01:22:39.857Z,1023.614
2019-03-19T01:22:51.623Z,1023.6496
2019-03-19T01:23:03.407Z,1023.6467
2019-03-19T01:23:15.165Z,1023.6171
2019-03-19T01:23:26.938Z,1023.6105
2019-03-19T01:23:38.727Z,1023.6251
2019-03-19T01:23:50.477Z,1023.6156
2019-03-19T01:24:02.260Z,1023.6188
2019-03-19T01:24:14.032Z,1023.6613
2019-03-19T01:24:25.803Z,1023.648
2019-03-19T01:24:37.590Z,1023.627
2019-03-19T01:24:49.338Z,1023.5731
2019-03-19T01:25:01.083Z,1023.6304
2019-03-19T01:25:12.856Z,1023.6223
2019-03-19T01:25:24.642Z,1023.6418
2019-03-19T01:25:36.401Z,1023.6189
2019-03-19T01:25:54.980Z,1023.624
2019-03-19T01:26:00.918Z,1023.6204
2019-03-19T01:26:12.671Z,1023.647
2019-03-19T01:26:24.437Z,1023.611
2019-03-19T01:26:36.206Z,1023.6274
2019-03-19T01:26:47.996Z,1023.6158
2019-03-19T01:26:59.768Z,1023.6567
2019-03-19T01:27:11.521Z,1023.6518
2019-03-19T01:27:23.293Z,1023.657
2019-03-19T01:27:35.052Z,1023.6486
2019-03-19T01:27:46.818Z,1023.6275
2019-03-19T01:27:58.596Z,1023.6536
2019-03-19T01:28:10.392Z,1023.6439
2019-03-19T01:28:22.150Z,1023.6455
2019-03-19T01:28:33.933Z,1023.6635
2019-03-19T01:28:45.685Z,1023.6535
2019-03-19T01:28:57.431Z,1023.6685
2019-03-19T01:29:09.192Z,1023.5934
2019-03-19T01:29:20.961Z,1023.6375
2019-03-19T01:29:32.746Z,1023.6652
2019-03-19T01:29:44.499Z,1023.6799
2019-03-19T01:29:56.259Z,1023.6115
2019-03-19T01:30:08.033Z,1023.6359
2019-03-19T01:30:19.790Z,1023.6162
2019-03-19T01:30:31.566Z,1023.6588
2019-03-19T01:30:43.340Z,1023.6377
2019-03-19T01:30:56.067Z,1023.6394
2019-03-19T01:31:07.819Z,1023.7078
2019-03-19T01:31:19.585Z,1023.6804
2019-03-19T01:31:31.419Z,1023.6292
2019-03-19T01:31:43.180Z,1023.6476
2019-03-19T01:31:54.932Z,1023.6865
2019-03-19T01:32:06.711Z,1023.7014
2019-03-19T01:32:18.514Z,1023.6849
2019-03-19T01:32:30.313Z,1023.6736
2019-03-19T01:32:42.073Z,1023.6652
2019-03-19T01:32:53.890Z,1023.6521
2019-03-19T01:33:05.641Z,1023.7175
2019-03-19T01:33:17.408Z,1023.7259
2019-03-19T01:33:29.161Z,1023.7388
2019-03-19T01:33:40.924Z,1023.6636
2019-03-19T01:33:52.688Z,1023.6688
2019-03-19T01:34:04.458Z,1023.6652
2019-03-19T01:34:16.229Z,1023.7372
2019-03-19T01:34:27.966Z,1023.7126
2019-03-19T01:34:39.720Z,1023.6979
2019-03-19T01:34:51.489Z,1023.7209
2019-03-19T01:35:03.263Z,1023.698
2019-03-19T01:35:15.035Z,1023.7421
2019-03-19T01:35:26.819Z,1023.7192
2019-03-19T01:35:38.596Z,1023.7387
2019-03-19T01:35:50.358Z,1023.6948
2019-03-19T01:36:02.112Z,1023.7029
2019-03-19T01:36:13.897Z,1023.7371
2019-03-19T01:36:25.669Z,1023.7503
2019-03-19T01:36:37.454Z,1023.7501
2019-03-19T01:36:49.200Z,1023.7209
2019-03-19T01:37:00.975Z,1023.7111
2019-03-19T01:37:12.729Z,1023.7226
2019-03-19T01:37:24.485Z,1023.7471
2019-03-19T01:37:36.246Z,1023.7569
2019-03-19T01:37:48.033Z,1023.7619
2019-03-19T01:37:59.779Z,1023.7341
2019-03-19T01:38:11.583Z,1023.7193
2019-03-19T01:38:23.337Z,1023.6885
2019-03-19T01:38:35.086Z,1023.7196
2019-03-19T01:38:46.849Z,1023.744
2019-03-19T01:38:58.589Z,1023.7228
2019-03-19T01:39:10.362Z,1023.7262
2019-03-19T01:39:22.122Z,1023.6952
2019-03-19T01:39:33.888Z,1023.7459
2019-03-19T01:39:45.657Z,1023.741
2019-03-19T01:39:57.405Z,1023.6643
2019-03-19T01:40:09.159Z,1023.6922
2019-03-19T01:40:20.917Z,1023.6968
2019-03-19T01:40:32.684Z,1023.7068
2019-03-19T01:40:44.441Z,1023.6856
2019-03-19T01:40:56.174Z,1023.6645
2019-03-19T01:41:07.962Z,1023.6937
2019-03-19T01:41:19.749Z,1023.6512
2019-03-19T01:41:31.530Z,1023.6578
2019-03-19T01:41:43.278Z,1023.6659
2019-03-19T01:41:55.080Z,1023.6922
2019-03-19T01:42:06.871Z,1023.7086
2019-03-19T01:42:18.627Z,1023.7103
2019-03-19T01:42:30.376Z,1023.71
2019-03-19T01:42:42.130Z,1023.6745
2019-03-19T01:42:53.950Z,1023.6859
2019-03-19T01:43:05.710Z,1023.6793
2019-03-19T01:43:17.457Z,1023.6793
2019-03-19T01:43:29.264Z,1023.6303
2019-03-19T01:43:41.017Z,1023.6828
2019-03-19T01:43:52.784Z,1023.6892
2019-03-19T01:44:04.536Z,1023.6975
2019-03-19T01:44:16.282Z,1023.7056
2019-03-19T01:44:28.043Z,1023.6879
2019-03-19T01:44:39.843Z,1023.6615
2019-03-19T01:44:51.607Z,1023.7073
2019-03-19T01:45:03.378Z,1023.6634
2019-03-19T01:45:15.162Z,1023.691
2019-03-19T01:45:26.908Z,1023.7204
2019-03-19T01:45:38.671Z,1023.7529
2019-03-19T01:45:50.424Z,1023.7106
2019-03-19T01:46:02.211Z,1023.7156
2019-03-19T01:46:13.953Z,1023.7107
2019-03-19T01:46:25.715Z,1023.727
2019-03-19T01:46:37.504Z,1023.7089
2019-03-19T01:46:49.278Z,1023.6992
2019-03-19T01:47:01.025Z,1023.7171
2019-03-19T01:47:12.787Z,1023.7238
2019-03-19T01:47:24.554Z,1023.7171
2019-03-19T01:47:36.313Z,1023.7484
2019-03-19T01:47:48.094Z,1023.7268
2019-03-19T01:47:59.844Z,1023.7451
2019-03-19T01:48:11.647Z,1023.7564
2019-03-19T01:48:23.418Z,1023.7451
2019-03-19T01:48:35.168Z,1023.7547
2019-03-19T01:48:47.940Z,1023.7514
2019-03-19T01:48:59.706Z,1023.8198
2019-03-19T01:49:11.432Z,1023.7628
2019-03-19T01:49:23.208Z,1023.7302
2019-03-19T01:49:34.997Z,1023.7449
2019-03-19T01:49:46.740Z,1023.737
2019-03-19T01:49:58.491Z,1023.776
2019-03-19T01:50:10.273Z,1023.7611
2019-03-19T01:50:22.053Z,1023.7678
2019-03-19T01:50:33.809Z,1023.7597
2019-03-19T01:50:45.563Z,1023.7282
2019-03-19T01:50:57.314Z,1023.7611
2019-03-19T01:51:09.108Z,1023.7675
2019-03-19T01:51:20.850Z,1023.7824
2019-03-19T01:51:32.607Z,1023.7448
2019-03-19T01:51:44.367Z,1023.7887
2019-03-19T01:51:56.117Z,1023.8015
2019-03-19T01:52:07.876Z,1023.7363
2019-03-19T01:52:19.633Z,1023.8098
2019-03-19T01:52:31.391Z,1023.7997
2019-03-19T01:52:43.208Z,1023.8193
2019-03-19T01:52:54.946Z,1023.8423
2019-03-19T01:53:06.766Z,1023.8537
2019-03-19T01:53:18.552Z,1023.8535
2019-03-19T01:53:30.288Z,1023.8456
2019-03-19T01:53:42.176Z,1023.8456
2019-03-19T01:53:53.948Z,1023.8178
2019-03-19T01:54:05.723Z,1023.8242
2019-03-19T01:54:17.528Z,1023.8438
2019-03-19T01:54:29.303Z,1023.8696
2019-03-19T01:54:41.092Z,1023.8582
2019-03-19T01:54:52.889Z,1023.8434
2019-03-19T01:55:04.656Z,1023.8304
2019-03-19T01:55:16.401Z,1023.8386
2019-03-19T01:55:28.141Z,1023.8171
2019-03-19T01:55:39.903Z,1023.8173
2019-03-19T01:55:51.670Z,1023.835
2019-03-19T01:56:05.300Z,1023.8563
2019-03-19T01:56:16.175Z,1023.8398
2019-03-19T01:56:27.929Z,1023.8612
2019-03-19T01:56:39.710Z,1023.8677
2019-03-19T01:56:51.468Z,1023.8922
2019-03-19T01:57:03.221Z,1023.8823
2019-03-19T01:57:14.988Z,1023.8626
2019-03-19T01:57:26.794Z,1023.8511
2019-03-19T01:57:38.555Z,1023.8676
2019-03-19T01:57:50.297Z,1023.8529
2019-03-19T01:58:02.046Z,1023.8627
2019-03-19T01:58:13.803Z,1023.8529
2019-03-19T01:58:25.576Z,1023.8463
2019-03-19T01:58:37.357Z,1023.8725
2019-03-19T01:58:49.192Z,1023.861
2019-03-19T01:59:00.956Z,1023.8579
2019-03-19T01:59:12.715Z,1023.8839
2019-03-19T01:59:24.456Z,1023.8595
2019-03-19T01:59:36.263Z,1023.9067
2019-03-19T01:59:48.036Z,1023.9015
2019-03-19T01:59:59.810Z,1023.8659
2019-03-19T02:00:11.582Z,1023.8721
2019-03-19T02:00:23.373Z,1023.9196
2019-03-19T02:00:35.126Z,1023.8691
2019-03-19T02:00:46.867Z,1023.8872
2019-03-19T02:00:58.611Z,1023.8886
2019-03-19T02:01:10.382Z,1023.8739
2019-03-19T02:01:22.177Z,1023.8984
2019-03-19T02:01:33.930Z,1023.9082
2019-03-19T02:01:45.730Z,1023.931
2019-03-19T02:01:57.474Z,1023.9147
2019-03-19T02:02:09.210Z,1023.905
2019-03-19T02:02:20.993Z,1023.9291
2019-03-19T02:02:32.789Z,1023.9243
2019-03-19T02:02:44.529Z,1023.8853
2019-03-19T02:02:56.303Z,1023.9489
2019-03-19T02:03:08.072Z,1023.9163
2019-03-19T02:03:19.818Z,1023.9082
2019-03-19T02:03:31.576Z,1023.9439
2019-03-19T02:03:43.384Z,1023.8965
2019-03-19T02:03:55.136Z,1023.8982
2019-03-19T02:04:06.907Z,1023.8967
2019-03-19T02:04:18.646Z,1023.89
2019-03-19T02:04:30.420Z,1023.8701
2019-03-19T02:04:42.194Z,1023.9096
2019-03-19T02:04:53.989Z,1023.8556
2019-03-19T02:05:05.753Z,1023.8818
2019-03-19T02:05:17.542Z,1023.9045
2019-03-19T02:05:29.327Z,1023.8343
2019-03-19T02:05:41.083Z,1023.854
2019-03-19T02:05:52.832Z,1023.9113
2019-03-19T02:06:04.618Z,1023.8881
2019-03-19T02:06:16.405Z,1023.8588
2019-03-19T02:06:28.168Z,1023.8884
2019-03-19T02:06:39.947Z,1023.8818
2019-03-19T02:06:51.704Z,1023.854
2019-03-19T02:07:03.454Z,1023.8605
2019-03-19T02:07:15.214Z,1023.8607
2019-03-19T02:07:26.983Z,1023.841
2019-03-19T02:07:38.749Z,1023.8607
2019-03-19T02:07:50.506Z,1023.8984
2019-03-19T02:08:02.267Z,1023.8331
2019-03-19T02:08:14.056Z,1023.8786
2019-03-19T02:08:25.838Z,1023.8739
2019-03-19T02:08:37.631Z,1023.882
2019-03-19T02:08:49.395Z,1023.8967
2019-03-19T02:09:01.179Z,1023.8607
2019-03-19T02:09:12.938Z,1023.8428
2019-03-19T02:09:24.722Z,1023.8479
2019-03-19T02:09:36.488Z,1023.8787
2019-03-19T02:09:48.258Z,1023.864
2019-03-19T02:10:00.024Z,1023.8641
2019-03-19T02:10:11.841Z,1023.8233
2019-03-19T02:10:23.721Z,1023.8625
2019-03-19T02:10:35.499Z,1023.8739
2019-03-19T02:10:47.255Z,1023.8448
2019-03-19T02:10:59.035Z,1023.8265
2019-03-19T02:11:10.821Z,1023.8333
2019-03-19T02:11:22.604Z,1023.8347
2019-03-19T02:11:34.365Z,1023.8331
2019-03-19T02:11:46.171Z,1023.8134
2019-03-19T02:11:57.910Z,1023.8544
2019-03-19T02:12:09.676Z,1023.8071
2019-03-19T02:12:21.429Z,1023.8593
2019-03-19T02:12:33.216Z,1023.8316
2019-03-19T02:12:44.978Z,1023.8464
2019-03-19T02:12:56.725Z,1023.8333
2019-03-19T02:13:08.471Z,1023.8496
2019-03-19T02:13:20.248Z,1023.8854
2019-03-19T02:13:31.999Z,1023.8596
2019-03-19T02:13:43.751Z,1023.8839
2019-03-19T02:13:55.497Z,1023.8776
2019-03-19T02:14:07.277Z,1023.8563
2019-03-19T02:14:19.028Z,1023.8513
2019-03-19T02:14:30.783Z,1023.9134
2019-03-19T02:14:42.559Z,1023.8677
2019-03-19T02:14:54.303Z,1023.9089
2019-03-19T02:15:06.084Z,1023.8698